sensor_id;sensor_type;location;lat;lon;timestamp;P1;durP1;ratioP1;P2;durP2;ratioP2
4646;SDS011;2336;47.822;7.564;2022-07-29T00:01:38;4.57;;;4.27;;
4646;SDS011;2336;47.822;7.564;2022-07-29T00:04:04;5.13;;;4.43;;
4646;SDS011;2336;47.822;7.564;2022-07-29T00:06:32;4.53;;;4.33;;
4646;SDS011;2336;47.822;7.564;2022-07-29T00:08:59;4.63;;;4.23;;
4646;SDS011;2336;47.822;7.564;2022-07-29T00:11:26;4.33;;;4.00;;
4646;SDS011;2336;47.822;7.564;2022-07-29T00:13:52;4.17;;;3.87;;
4646;SDS011;2336;47.822;7.564;2022-07-29T00:16:19;4.10;;;3.90;;
4646;SDS011;2336;47.822;7.564;2022-07-29T00:18:46;4.10;;;3.80;;
4646;SDS011;2336;47.822;7.564;2022-07-29T00:21:13;3.37;;;3.17;;
4646;SDS011;2336;47.822;7.564;2022-07-29T00:23:41;4.67;;;3.37;;
4646;SDS011;2336;47.822;7.564;2022-07-29T00:26:07;3.20;;;3.10;;
4646;SDS011;2336;47.822;7.564;2022-07-29T00:28:34;3.43;;;3.23;;
4646;SDS011;2336;47.822;7.564;2022-07-29T00:31:01;4.50;;;3.20;;
4646;SDS011;2336;47.822;7.564;2022-07-29T00:33:28;3.33;;;3.13;;
4646;SDS011;2336;47.822;7.564;2022-07-29T00:35:55;3.40;;;3.10;;
4646;SDS011;2336;47.822;7.564;2022-07-29T00:38:20;3.40;;;3.03;;
4646;SDS011;2336;47.822;7.564;2022-07-29T00:40:49;3.07;;;2.87;;
4646;SDS011;2336;47.822;7.564;2022-07-29T00:43:16;2.67;;;2.57;;
4646;SDS011;2336;47.822;7.564;2022-07-29T00:45:43;2.87;;;2.67;;
4646;SDS011;2336;47.822;7.564;2022-07-29T00:48:10;2.80;;;2.70;;
4646;SDS011;2336;47.822;7.564;2022-07-29T00:50:37;5.30;;;3.00;;
4646;SDS011;2336;47.822;7.564;2022-07-29T00:53:05;3.20;;;3.00;;
4646;SDS011;2336;47.822;7.564;2022-07-29T00:55:32;4.87;;;3.30;;
4646;SDS011;2336;47.822;7.564;2022-07-29T00:58:00;4.90;;;3.30;;
4646;SDS011;2336;47.822;7.564;2022-07-29T01:00:28;6.70;;;3.93;;
4646;SDS011;2336;47.822;7.564;2022-07-29T01:02:55;3.30;;;3.20;;
4646;SDS011;2336;47.822;7.564;2022-07-29T01:05:23;5.17;;;3.83;;
4646;SDS011;2336;47.822;7.564;2022-07-29T01:07:52;3.50;;;3.30;;
4646;SDS011;2336;47.822;7.564;2022-07-29T01:10:21;3.70;;;3.17;;
4646;SDS011;2336;47.822;7.564;2022-07-29T01:12:49;3.40;;;3.10;;
4646;SDS011;2336;47.822;7.564;2022-07-29T01:15:18;3.70;;;3.50;;
4646;SDS011;2336;47.822;7.564;2022-07-29T01:17:47;6.80;;;3.20;;
4646;SDS011;2336;47.822;7.564;2022-07-29T01:20:22;2.93;;;2.73;;
4646;SDS011;2336;47.822;7.564;2022-07-29T01:26:12;3.17;;;3.00;;
4646;SDS011;2336;47.822;7.564;2022-07-29T01:29:02;3.50;;;3.23;;
4646;SDS011;2336;47.822;7.564;2022-07-29T01:31:39;3.47;;;3.27;;
4646;SDS011;2336;47.822;7.564;2022-07-29T01:34:10;3.47;;;3.17;;
4646;SDS011;2336;47.822;7.564;2022-07-29T01:36:43;4.30;;;3.67;;
4646;SDS011;2336;47.822;7.564;2022-07-29T01:39:16;3.80;;;3.50;;
4646;SDS011;2336;47.822;7.564;2022-07-29T01:41:56;3.10;;;2.90;;
4646;SDS011;2336;47.822;7.564;2022-07-29T01:44:31;3.20;;;3.10;;
4646;SDS011;2336;47.822;7.564;2022-07-29T01:47:05;8.50;;;3.20;;
4646;SDS011;2336;47.822;7.564;2022-07-29T01:49:36;2.57;;;2.47;;
4646;SDS011;2336;47.822;7.564;2022-07-29T01:52:07;3.77;;;2.70;;
4646;SDS011;2336;47.822;7.564;2022-07-29T01:54:42;2.90;;;2.70;;
4646;SDS011;2336;47.822;7.564;2022-07-29T01:57:12;4.30;;;3.80;;
4646;SDS011;2336;47.822;7.564;2022-07-29T01:59:43;3.80;;;3.50;;
4646;SDS011;2336;47.822;7.564;2022-07-29T02:02:12;3.60;;;3.30;;
4646;SDS011;2336;47.822;7.564;2022-07-29T02:04:41;4.40;;;2.90;;
4646;SDS011;2336;47.822;7.564;2022-07-29T02:07:13;3.53;;;3.33;;
4646;SDS011;2336;47.822;7.564;2022-07-29T02:09:44;3.60;;;3.40;;
4646;SDS011;2336;47.822;7.564;2022-07-29T02:12:12;3.63;;;3.43;;
4646;SDS011;2336;47.822;7.564;2022-07-29T02:14:44;3.47;;;3.27;;
4646;SDS011;2336;47.822;7.564;2022-07-29T02:17:13;3.40;;;3.20;;
4646;SDS011;2336;47.822;7.564;2022-07-29T02:19:46;3.43;;;3.17;;
4646;SDS011;2336;47.822;7.564;2022-07-29T02:51:49;4.70;;;4.40;;
4646;SDS011;2336;47.822;7.564;2022-07-29T02:54:22;7.30;;;4.53;;
4646;SDS011;2336;47.822;7.564;2022-07-29T02:56:54;4.70;;;4.33;;
4646;SDS011;2336;47.822;7.564;2022-07-29T02:59:29;5.20;;;5.00;;
4646;SDS011;2336;47.822;7.564;2022-07-29T03:01:59;4.77;;;4.47;;
4646;SDS011;2336;47.822;7.564;2022-07-29T03:04:28;5.37;;;4.93;;
4646;SDS011;2336;47.822;7.564;2022-07-29T03:07:02;4.70;;;4.40;;
4646;SDS011;2336;47.822;7.564;2022-07-29T03:09:31;5.23;;;4.80;;
4646;SDS011;2336;47.822;7.564;2022-07-29T03:11:59;4.90;;;4.70;;
4646;SDS011;2336;47.822;7.564;2022-07-29T03:14:27;5.20;;;4.90;;
4646;SDS011;2336;47.822;7.564;2022-07-29T03:16:54;5.83;;;5.43;;
4646;SDS011;2336;47.822;7.564;2022-07-29T03:19:21;4.73;;;4.43;;
4646;SDS011;2336;47.822;7.564;2022-07-29T03:21:48;4.93;;;4.73;;
4646;SDS011;2336;47.822;7.564;2022-07-29T03:24:27;5.27;;;4.97;;
4646;SDS011;2336;47.822;7.564;2022-07-29T03:26:55;5.20;;;4.90;;
4646;SDS011;2336;47.822;7.564;2022-07-29T03:29:23;4.77;;;4.40;;
4646;SDS011;2336;47.822;7.564;2022-07-29T03:31:50;7.03;;;5.00;;
4646;SDS011;2336;47.822;7.564;2022-07-29T03:34:16;4.97;;;4.77;;
4646;SDS011;2336;47.822;7.564;2022-07-29T03:36:43;6.50;;;4.67;;
4646;SDS011;2336;47.822;7.564;2022-07-29T03:39:10;5.13;;;4.80;;
4646;SDS011;2336;47.822;7.564;2022-07-29T03:41:42;5.43;;;4.90;;
4646;SDS011;2336;47.822;7.564;2022-07-29T03:44:12;5.53;;;5.23;;
4646;SDS011;2336;47.822;7.564;2022-07-29T03:46:41;5.87;;;5.47;;
4646;SDS011;2336;47.822;7.564;2022-07-29T03:49:09;5.57;;;4.83;;
4646;SDS011;2336;47.822;7.564;2022-07-29T03:51:37;6.07;;;5.60;;
4646;SDS011;2336;47.822;7.564;2022-07-29T03:54:05;5.97;;;5.47;;
4646;SDS011;2336;47.822;7.564;2022-07-29T03:56:32;5.77;;;5.20;;
4646;SDS011;2336;47.822;7.564;2022-07-29T03:59:04;4.97;;;4.53;;
4646;SDS011;2336;47.822;7.564;2022-07-29T04:01:32;5.40;;;5.10;;
4646;SDS011;2336;47.822;7.564;2022-07-29T04:04:00;6.23;;;5.20;;
4646;SDS011;2336;47.822;7.564;2022-07-29T04:06:28;5.40;;;5.00;;
4646;SDS011;2336;47.822;7.564;2022-07-29T04:09:02;5.50;;;5.10;;
4646;SDS011;2336;47.822;7.564;2022-07-29T04:11:29;6.90;;;5.80;;
4646;SDS011;2336;47.822;7.564;2022-07-29T04:13:56;5.80;;;5.33;;
4646;SDS011;2336;47.822;7.564;2022-07-29T04:16:24;6.00;;;5.30;;
4646;SDS011;2336;47.822;7.564;2022-07-29T04:18:51;6.23;;;5.63;;
4646;SDS011;2336;47.822;7.564;2022-07-29T04:21:18;5.90;;;5.50;;
4646;SDS011;2336;47.822;7.564;2022-07-29T04:23:44;5.70;;;5.20;;
4646;SDS011;2336;47.822;7.564;2022-07-29T04:26:14;6.00;;;5.43;;
4646;SDS011;2336;47.822;7.564;2022-07-29T04:28:41;5.33;;;4.87;;
4646;SDS011;2336;47.822;7.564;2022-07-29T04:31:08;4.80;;;4.47;;
4646;SDS011;2336;47.822;7.564;2022-07-29T04:33:36;4.93;;;4.53;;
4646;SDS011;2336;47.822;7.564;2022-07-29T04:36:03;3.97;;;3.67;;
4646;SDS011;2336;47.822;7.564;2022-07-29T04:38:30;7.63;;;4.53;;
4646;SDS011;2336;47.822;7.564;2022-07-29T04:40:57;5.23;;;4.80;;
4646;SDS011;2336;47.822;7.564;2022-07-29T04:43:24;4.70;;;4.30;;
4646;SDS011;2336;47.822;7.564;2022-07-29T04:45:51;5.17;;;4.73;;
4646;SDS011;2336;47.822;7.564;2022-07-29T04:48:17;8.30;;;5.50;;
4646;SDS011;2336;47.822;7.564;2022-07-29T04:50:46;4.70;;;4.50;;
4646;SDS011;2336;47.822;7.564;2022-07-29T04:53:12;5.00;;;4.70;;
4646;SDS011;2336;47.822;7.564;2022-07-29T04:55:39;5.37;;;5.00;;
4646;SDS011;2336;47.822;7.564;2022-07-29T04:58:07;4.77;;;4.47;;
4646;SDS011;2336;47.822;7.564;2022-07-29T05:00:34;4.63;;;4.37;;
4646;SDS011;2336;47.822;7.564;2022-07-29T05:03:01;5.70;;;5.30;;
4646;SDS011;2336;47.822;7.564;2022-07-29T05:05:27;6.17;;;5.23;;
4646;SDS011;2336;47.822;7.564;2022-07-29T05:07:56;8.20;;;5.50;;
4646;SDS011;2336;47.822;7.564;2022-07-29T05:10:22;11.40;;;4.90;;
4646;SDS011;2336;47.822;7.564;2022-07-29T05:12:49;5.37;;;4.97;;
4646;SDS011;2336;47.822;7.564;2022-07-29T05:15:16;9.97;;;4.70;;
4646;SDS011;2336;47.822;7.564;2022-07-29T05:17:43;5.60;;;5.00;;
4646;SDS011;2336;47.822;7.564;2022-07-29T05:20:10;5.80;;;5.30;;
4646;SDS011;2336;47.822;7.564;2022-07-29T05:22:37;6.83;;;5.40;;
4646;SDS011;2336;47.822;7.564;2022-07-29T05:25:06;11.07;;;4.90;;
4646;SDS011;2336;47.822;7.564;2022-07-29T05:27:34;5.40;;;4.90;;
4646;SDS011;2336;47.822;7.564;2022-07-29T05:30:01;5.47;;;5.00;;
4646;SDS011;2336;47.822;7.564;2022-07-29T05:32:28;6.50;;;4.67;;
4646;SDS011;2336;47.822;7.564;2022-07-29T05:34:55;5.60;;;5.10;;
4646;SDS011;2336;47.822;7.564;2022-07-29T05:37:22;5.37;;;4.97;;
4646;SDS011;2336;47.822;7.564;2022-07-29T05:39:49;5.07;;;4.77;;
4646;SDS011;2336;47.822;7.564;2022-07-29T05:42:17;5.87;;;4.97;;
4646;SDS011;2336;47.822;7.564;2022-07-29T05:44:44;5.40;;;4.67;;
4646;SDS011;2336;47.822;7.564;2022-07-29T05:47:12;7.77;;;4.30;;
4646;SDS011;2336;47.822;7.564;2022-07-29T05:49:39;4.47;;;4.23;;
4646;SDS011;2336;47.822;7.564;2022-07-29T05:52:06;4.83;;;4.40;;
4646;SDS011;2336;47.822;7.564;2022-07-29T05:54:33;6.37;;;4.20;;
4646;SDS011;2336;47.822;7.564;2022-07-29T05:57:00;4.57;;;4.20;;
4646;SDS011;2336;47.822;7.564;2022-07-29T05:59:28;5.97;;;4.07;;
4646;SDS011;2336;47.822;7.564;2022-07-29T06:01:55;5.67;;;4.37;;
4646;SDS011;2336;47.822;7.564;2022-07-29T06:04:22;4.53;;;4.23;;
4646;SDS011;2336;47.822;7.564;2022-07-29T06:06:49;4.90;;;4.50;;
4646;SDS011;2336;47.822;7.564;2022-07-29T06:09:16;4.80;;;4.50;;
4646;SDS011;2336;47.822;7.564;2022-07-29T06:11:43;7.50;;;4.63;;
4646;SDS011;2336;47.822;7.564;2022-07-29T06:14:09;4.20;;;4.00;;
4646;SDS011;2336;47.822;7.564;2022-07-29T06:16:38;4.93;;;4.53;;
4646;SDS011;2336;47.822;7.564;2022-07-29T06:19:04;4.63;;;4.30;;
4646;SDS011;2336;47.822;7.564;2022-07-29T06:21:31;6.10;;;5.00;;
4646;SDS011;2336;47.822;7.564;2022-07-29T06:23:58;5.50;;;4.97;;
4646;SDS011;2336;47.822;7.564;2022-07-29T06:26:25;4.60;;;4.40;;
4646;SDS011;2336;47.822;7.564;2022-07-29T06:28:52;4.60;;;4.20;;
4646;SDS011;2336;47.822;7.564;2022-07-29T06:31:18;5.17;;;4.90;;
4646;SDS011;2336;47.822;7.564;2022-07-29T06:33:47;5.30;;;5.00;;
4646;SDS011;2336;47.822;7.564;2022-07-29T06:36:13;5.07;;;4.67;;
4646;SDS011;2336;47.822;7.564;2022-07-29T06:38:40;6.50;;;4.60;;
4646;SDS011;2336;47.822;7.564;2022-07-29T06:41:07;5.40;;;5.00;;
4646;SDS011;2336;47.822;7.564;2022-07-29T06:43:38;5.20;;;4.90;;
4646;SDS011;2336;47.822;7.564;2022-07-29T06:46:06;8.40;;;6.10;;
4646;SDS011;2336;47.822;7.564;2022-07-29T06:48:34;5.90;;;5.30;;
4646;SDS011;2336;47.822;7.564;2022-07-29T06:51:03;7.20;;;5.80;;
4646;SDS011;2336;47.822;7.564;2022-07-29T06:53:31;5.27;;;4.80;;
4646;SDS011;2336;47.822;7.564;2022-07-29T06:55:59;5.00;;;4.57;;
4646;SDS011;2336;47.822;7.564;2022-07-29T06:58:27;5.73;;;5.00;;
4646;SDS011;2336;47.822;7.564;2022-07-29T07:00:54;10.03;;;5.37;;
4646;SDS011;2336;47.822;7.564;2022-07-29T07:03:22;7.20;;;4.73;;
4646;SDS011;2336;47.822;7.564;2022-07-29T07:05:48;5.43;;;5.03;;
4646;SDS011;2336;47.822;7.564;2022-07-29T07:08:17;4.43;;;4.23;;
4646;SDS011;2336;47.822;7.564;2022-07-29T07:10:44;4.57;;;4.27;;
4646;SDS011;2336;47.822;7.564;2022-07-29T07:13:11;5.80;;;3.27;;
4646;SDS011;2336;47.822;7.564;2022-07-29T07:15:39;6.33;;;4.40;;
4646;SDS011;2336;47.822;7.564;2022-07-29T07:18:06;5.23;;;4.10;;
4646;SDS011;2336;47.822;7.564;2022-07-29T07:20:33;4.57;;;4.27;;
4646;SDS011;2336;47.822;7.564;2022-07-29T07:23:00;4.30;;;4.00;;
4646;SDS011;2336;47.822;7.564;2022-07-29T07:25:29;4.07;;;3.70;;
4646;SDS011;2336;47.822;7.564;2022-07-29T07:27:55;9.73;;;4.93;;
4646;SDS011;2336;47.822;7.564;2022-07-29T07:30:22;5.60;;;3.60;;
4646;SDS011;2336;47.822;7.564;2022-07-29T07:32:49;3.10;;;3.00;;
4646;SDS011;2336;47.822;7.564;2022-07-29T07:35:16;4.03;;;3.43;;
4646;SDS011;2336;47.822;7.564;2022-07-29T07:37:43;3.47;;;3.17;;
4646;SDS011;2336;47.822;7.564;2022-07-29T07:40:10;5.40;;;2.97;;
4646;SDS011;2336;47.822;7.564;2022-07-29T07:42:39;6.47;;;3.40;;
4646;SDS011;2336;47.822;7.564;2022-07-29T07:45:06;4.80;;;3.80;;
4646;SDS011;2336;47.822;7.564;2022-07-29T07:47:35;4.57;;;3.10;;
4646;SDS011;2336;47.822;7.564;2022-07-29T07:50:02;2.73;;;2.63;;
4646;SDS011;2336;47.822;7.564;2022-07-29T07:52:30;4.80;;;3.03;;
4646;SDS011;2336;47.822;7.564;2022-07-29T07:54:57;3.23;;;2.90;;
4646;SDS011;2336;47.822;7.564;2022-07-29T07:57:23;3.60;;;3.30;;
4646;SDS011;2336;47.822;7.564;2022-07-29T07:59:51;4.03;;;3.73;;
4646;SDS011;2336;47.822;7.564;2022-07-29T08:02:18;5.70;;;3.60;;
4646;SDS011;2336;47.822;7.564;2022-07-29T08:04:45;4.40;;;3.90;;
4646;SDS011;2336;47.822;7.564;2022-07-29T08:07:12;3.77;;;3.67;;
4646;SDS011;2336;47.822;7.564;2022-07-29T08:09:39;4.17;;;3.80;;
4646;SDS011;2336;47.822;7.564;2022-07-29T08:12:07;4.17;;;3.20;;
4646;SDS011;2336;47.822;7.564;2022-07-29T08:14:33;5.40;;;2.87;;
4646;SDS011;2336;47.822;7.564;2022-07-29T08:17:02;3.37;;;3.17;;
4646;SDS011;2336;47.822;7.564;2022-07-29T08:19:28;4.10;;;3.60;;
4646;SDS011;2336;47.822;7.564;2022-07-29T08:21:55;5.30;;;3.27;;
4646;SDS011;2336;47.822;7.564;2022-07-29T08:24:22;3.93;;;2.83;;
4646;SDS011;2336;47.822;7.564;2022-07-29T08:27:06;2.93;;;2.70;;
4646;SDS011;2336;47.822;7.564;2022-07-29T08:29:33;4.93;;;2.37;;
4646;SDS011;2336;47.822;7.564;2022-07-29T08:32:01;3.10;;;2.80;;
4646;SDS011;2336;47.822;7.564;2022-07-29T08:34:28;4.00;;;2.87;;
4646;SDS011;2336;47.822;7.564;2022-07-29T08:36:55;3.97;;;2.60;;
4646;SDS011;2336;47.822;7.564;2022-07-29T08:39:22;3.23;;;3.00;;
4646;SDS011;2336;47.822;7.564;2022-07-29T08:41:49;3.57;;;2.73;;
4646;SDS011;2336;47.822;7.564;2022-07-29T08:44:16;3.80;;;2.80;;
4646;SDS011;2336;47.822;7.564;2022-07-29T08:46:43;3.73;;;3.07;;
4646;SDS011;2336;47.822;7.564;2022-07-29T08:49:12;4.90;;;3.70;;
4646;SDS011;2336;47.822;7.564;2022-07-29T08:51:39;3.33;;;3.10;;
4646;SDS011;2336;47.822;7.564;2022-07-29T08:54:07;3.47;;;3.23;;
4646;SDS011;2336;47.822;7.564;2022-07-29T08:56:35;3.37;;;3.10;;
4646;SDS011;2336;47.822;7.564;2022-07-29T08:59:04;3.53;;;3.23;;
4646;SDS011;2336;47.822;7.564;2022-07-29T09:01:32;5.70;;;3.40;;
4646;SDS011;2336;47.822;7.564;2022-07-29T09:04:01;7.03;;;3.10;;
4646;SDS011;2336;47.822;7.564;2022-07-29T09:06:32;3.90;;;3.60;;
4646;SDS011;2336;47.822;7.564;2022-07-29T09:09:02;2.97;;;2.87;;
4646;SDS011;2336;47.822;7.564;2022-07-29T09:11:31;3.33;;;3.13;;
4646;SDS011;2336;47.822;7.564;2022-07-29T09:13:58;3.30;;;3.10;;
4646;SDS011;2336;47.822;7.564;2022-07-29T09:16:25;5.77;;;4.17;;
4646;SDS011;2336;47.822;7.564;2022-07-29T09:18:52;9.90;;;3.60;;
4646;SDS011;2336;47.822;7.564;2022-07-29T09:21:19;6.40;;;3.57;;
4646;SDS011;2336;47.822;7.564;2022-07-29T09:24:06;6.23;;;3.13;;
4646;SDS011;2336;47.822;7.564;2022-07-29T09:26:34;4.97;;;2.77;;
4646;SDS011;2336;47.822;7.564;2022-07-29T09:29:10;3.10;;;2.80;;
4646;SDS011;2336;47.822;7.564;2022-07-29T09:31:40;3.00;;;2.70;;
4646;SDS011;2336;47.822;7.564;2022-07-29T09:34:08;2.90;;;2.80;;
4646;SDS011;2336;47.822;7.564;2022-07-29T09:36:39;3.20;;;3.00;;
4646;SDS011;2336;47.822;7.564;2022-07-29T09:39:08;3.07;;;2.87;;
4646;SDS011;2336;47.822;7.564;2022-07-29T09:41:45;6.43;;;3.40;;
4646;SDS011;2336;47.822;7.564;2022-07-29T09:44:13;6.67;;;3.20;;
4646;SDS011;2336;47.822;7.564;2022-07-29T09:46:40;3.30;;;3.10;;
4646;SDS011;2336;47.822;7.564;2022-07-29T09:49:30;3.90;;;3.63;;
4646;SDS011;2336;47.822;7.564;2022-07-29T09:51:59;3.87;;;2.90;;
4646;SDS011;2336;47.822;7.564;2022-07-29T09:54:28;3.07;;;2.97;;
4646;SDS011;2336;47.822;7.564;2022-07-29T09:57:01;3.33;;;3.13;;
4646;SDS011;2336;47.822;7.564;2022-07-29T09:59:29;2.67;;;2.57;;
4646;SDS011;2336;47.822;7.564;2022-07-29T10:01:56;2.93;;;2.80;;
4646;SDS011;2336;47.822;7.564;2022-07-29T10:04:23;3.20;;;3.00;;
4646;SDS011;2336;47.822;7.564;2022-07-29T10:06:59;3.03;;;2.83;;
4646;SDS011;2336;47.822;7.564;2022-07-29T10:09:28;3.40;;;3.10;;
4646;SDS011;2336;47.822;7.564;2022-07-29T10:12:08;3.20;;;2.87;;
4646;SDS011;2336;47.822;7.564;2022-07-29T10:14:39;5.60;;;3.10;;
4646;SDS011;2336;47.822;7.564;2022-07-29T10:17:06;4.70;;;3.33;;
4646;SDS011;2336;47.822;7.564;2022-07-29T10:19:35;7.30;;;3.07;;
4646;SDS011;2336;47.822;7.564;2022-07-29T10:22:04;2.73;;;2.63;;
4646;SDS011;2336;47.822;7.564;2022-07-29T10:24:33;3.87;;;3.53;;
4646;SDS011;2336;47.822;7.564;2022-07-29T10:27:03;3.17;;;3.07;;
4646;SDS011;2336;47.822;7.564;2022-07-29T10:29:31;3.47;;;3.37;;
4646;SDS011;2336;47.822;7.564;2022-07-29T10:32:10;3.87;;;3.40;;
4646;SDS011;2336;47.822;7.564;2022-07-29T10:34:57;6.63;;;3.37;;
4646;SDS011;2336;47.822;7.564;2022-07-29T10:37:37;3.23;;;3.00;;
4646;SDS011;2336;47.822;7.564;2022-07-29T10:40:22;3.80;;;3.20;;
4646;SDS011;2336;47.822;7.564;2022-07-29T10:43:16;4.87;;;3.30;;
4646;SDS011;2336;47.822;7.564;2022-07-29T10:45:48;2.57;;;2.47;;
4646;SDS011;2336;47.822;7.564;2022-07-29T10:48:16;2.80;;;2.70;;
4646;SDS011;2336;47.822;7.564;2022-07-29T10:50:57;4.77;;;3.20;;
4646;SDS011;2336;47.822;7.564;2022-07-29T10:56:27;3.10;;;2.90;;
4646;SDS011;2336;47.822;7.564;2022-07-29T11:01:53;2.70;;;2.60;;
4646;SDS011;2336;47.822;7.564;2022-07-29T11:07:23;3.53;;;2.87;;
4646;SDS011;2336;47.822;7.564;2022-07-29T11:12:48;8.03;;;3.03;;
4646;SDS011;2336;47.822;7.564;2022-07-29T11:15:18;3.03;;;2.83;;
4646;SDS011;2336;47.822;7.564;2022-07-29T11:18:06;4.43;;;3.07;;
4646;SDS011;2336;47.822;7.564;2022-07-29T11:20:35;3.50;;;3.30;;
4646;SDS011;2336;47.822;7.564;2022-07-29T11:23:23;3.73;;;3.43;;
4646;SDS011;2336;47.822;7.564;2022-07-29T11:29:01;3.60;;;3.13;;
4646;SDS011;2336;47.822;7.564;2022-07-29T11:31:34;3.47;;;3.27;;
4646;SDS011;2336;47.822;7.564;2022-07-29T11:34:19;3.60;;;3.30;;
4646;SDS011;2336;47.822;7.564;2022-07-29T11:40:10;3.77;;;2.63;;
4646;SDS011;2336;47.822;7.564;2022-07-29T11:42:45;2.93;;;2.70;;
4646;SDS011;2336;47.822;7.564;2022-07-29T11:45:14;2.70;;;2.50;;
4646;SDS011;2336;47.822;7.564;2022-07-29T11:47:50;3.03;;;2.93;;
4646;SDS011;2336;47.822;7.564;2022-07-29T11:50:26;2.60;;;2.50;;
4646;SDS011;2336;47.822;7.564;2022-07-29T11:52:55;2.57;;;2.47;;
4646;SDS011;2336;47.822;7.564;2022-07-29T11:55:23;3.90;;;3.03;;
4646;SDS011;2336;47.822;7.564;2022-07-29T11:57:51;5.33;;;3.10;;
4646;SDS011;2336;47.822;7.564;2022-07-29T12:00:24;2.77;;;2.60;;
4646;SDS011;2336;47.822;7.564;2022-07-29T12:02:53;2.50;;;2.40;;
4646;SDS011;2336;47.822;7.564;2022-07-29T12:05:20;2.60;;;2.40;;
4646;SDS011;2336;47.822;7.564;2022-07-29T12:07:58;5.07;;;2.77;;
4646;SDS011;2336;47.822;7.564;2022-07-29T12:10:31;3.37;;;3.17;;
4646;SDS011;2336;47.822;7.564;2022-07-29T12:12:58;2.67;;;2.47;;
4646;SDS011;2336;47.822;7.564;2022-07-29T12:15:26;2.13;;;2.03;;
4646;SDS011;2336;47.822;7.564;2022-07-29T12:17:53;2.80;;;2.70;;
4646;SDS011;2336;47.822;7.564;2022-07-29T12:20:23;3.07;;;2.70;;
4646;SDS011;2336;47.822;7.564;2022-07-29T12:22:51;4.50;;;2.60;;
4646;SDS011;2336;47.822;7.564;2022-07-29T12:25:20;3.17;;;2.63;;
4646;SDS011;2336;47.822;7.564;2022-07-29T12:27:47;5.90;;;2.90;;
4646;SDS011;2336;47.822;7.564;2022-07-29T12:30:23;7.00;;;2.90;;
4646;SDS011;2336;47.822;7.564;2022-07-29T12:33:10;3.30;;;3.00;;
4646;SDS011;2336;47.822;7.564;2022-07-29T12:35:38;6.30;;;2.83;;
4646;SDS011;2336;47.822;7.564;2022-07-29T12:38:05;6.40;;;3.50;;
4646;SDS011;2336;47.822;7.564;2022-07-29T12:40:32;6.67;;;2.60;;
4646;SDS011;2336;47.822;7.564;2022-07-29T12:43:06;6.70;;;2.80;;
4646;SDS011;2336;47.822;7.564;2022-07-29T12:45:36;2.97;;;2.60;;
4646;SDS011;2336;47.822;7.564;2022-07-29T12:48:04;3.13;;;2.93;;
4646;SDS011;2336;47.822;7.564;2022-07-29T12:50:33;2.63;;;2.43;;
4646;SDS011;2336;47.822;7.564;2022-07-29T12:53:10;2.53;;;2.33;;
4646;SDS011;2336;47.822;7.564;2022-07-29T12:55:39;3.20;;;2.70;;
4646;SDS011;2336;47.822;7.564;2022-07-29T12:58:07;2.60;;;2.40;;
4646;SDS011;2336;47.822;7.564;2022-07-29T13:00:34;3.17;;;2.97;;
4646;SDS011;2336;47.822;7.564;2022-07-29T13:03:02;2.67;;;2.47;;
4646;SDS011;2336;47.822;7.564;2022-07-29T13:05:40;3.03;;;2.83;;
4646;SDS011;2336;47.822;7.564;2022-07-29T13:08:12;4.60;;;2.07;;
4646;SDS011;2336;47.822;7.564;2022-07-29T13:10:40;2.50;;;2.30;;
4646;SDS011;2336;47.822;7.564;2022-07-29T13:13:08;2.77;;;2.20;;
4646;SDS011;2336;47.822;7.564;2022-07-29T13:15:37;2.50;;;2.40;;
4646;SDS011;2336;47.822;7.564;2022-07-29T13:18:05;2.83;;;2.30;;
4646;SDS011;2336;47.822;7.564;2022-07-29T13:20:51;2.83;;;2.30;;
4646;SDS011;2336;47.822;7.564;2022-07-29T13:23:18;4.73;;;2.30;;
4646;SDS011;2336;47.822;7.564;2022-07-29T13:25:45;2.07;;;1.87;;
4646;SDS011;2336;47.822;7.564;2022-07-29T13:28:12;2.50;;;2.20;;
4646;SDS011;2336;47.822;7.564;2022-07-29T13:30:40;3.03;;;2.50;;
4646;SDS011;2336;47.822;7.564;2022-07-29T13:33:07;2.27;;;2.07;;
4646;SDS011;2336;47.822;7.564;2022-07-29T13:35:34;3.53;;;2.20;;
4646;SDS011;2336;47.822;7.564;2022-07-29T13:38:01;2.30;;;2.10;;
4646;SDS011;2336;47.822;7.564;2022-07-29T13:40:27;2.20;;;2.00;;
4646;SDS011;2336;47.822;7.564;2022-07-29T13:42:55;6.53;;;2.03;;
4646;SDS011;2336;47.822;7.564;2022-07-29T13:45:22;1.80;;;1.70;;
4646;SDS011;2336;47.822;7.564;2022-07-29T13:47:50;3.70;;;1.93;;
4646;SDS011;2336;47.822;7.564;2022-07-29T13:50:17;1.97;;;1.83;;
4646;SDS011;2336;47.822;7.564;2022-07-29T13:52:43;4.10;;;1.90;;
4646;SDS011;2336;47.822;7.564;2022-07-29T13:55:13;3.03;;;1.97;;
4646;SDS011;2336;47.822;7.564;2022-07-29T13:57:39;2.93;;;2.17;;
4646;SDS011;2336;47.822;7.564;2022-07-29T14:00:07;4.70;;;2.00;;
4646;SDS011;2336;47.822;7.564;2022-07-29T14:02:35;5.60;;;2.00;;
4646;SDS011;2336;47.822;7.564;2022-07-29T14:05:05;3.00;;;2.77;;
4646;SDS011;2336;47.822;7.564;2022-07-29T14:07:32;2.00;;;1.80;;
4646;SDS011;2336;47.822;7.564;2022-07-29T14:09:59;1.97;;;1.87;;
4646;SDS011;2336;47.822;7.564;2022-07-29T14:12:26;1.60;;;1.43;;
4646;SDS011;2336;47.822;7.564;2022-07-29T14:14:52;7.37;;;1.90;;
4646;SDS011;2336;47.822;7.564;2022-07-29T14:17:19;3.57;;;1.60;;
4646;SDS011;2336;47.822;7.564;2022-07-29T14:19:46;5.67;;;1.93;;
4646;SDS011;2336;47.822;7.564;2022-07-29T14:22:14;2.87;;;1.50;;
4646;SDS011;2336;47.822;7.564;2022-07-29T14:24:43;1.90;;;1.80;;
4646;SDS011;2336;47.822;7.564;2022-07-29T14:27:10;1.90;;;1.80;;
4646;SDS011;2336;47.822;7.564;2022-07-29T14:29:37;1.30;;;1.30;;
4646;SDS011;2336;47.822;7.564;2022-07-29T14:32:04;1.97;;;1.73;;
4646;SDS011;2336;47.822;7.564;2022-07-29T14:34:32;1.80;;;1.70;;
4646;SDS011;2336;47.822;7.564;2022-07-29T14:36:59;2.70;;;1.80;;
4646;SDS011;2336;47.822;7.564;2022-07-29T14:39:27;2.07;;;1.97;;
4646;SDS011;2336;47.822;7.564;2022-07-29T14:41:54;1.90;;;1.80;;
4646;SDS011;2336;47.822;7.564;2022-07-29T14:44:21;1.70;;;1.60;;
4646;SDS011;2336;47.822;7.564;2022-07-29T14:46:48;1.60;;;1.50;;
4646;SDS011;2336;47.822;7.564;2022-07-29T14:49:15;6.83;;;1.80;;
4646;SDS011;2336;47.822;7.564;2022-07-29T14:51:42;1.87;;;1.77;;
4646;SDS011;2336;47.822;7.564;2022-07-29T14:54:08;2.10;;;1.30;;
4646;SDS011;2336;47.822;7.564;2022-07-29T14:56:36;2.13;;;1.70;;
4646;SDS011;2336;47.822;7.564;2022-07-29T14:59:03;3.83;;;1.70;;
4646;SDS011;2336;47.822;7.564;2022-07-29T15:01:30;4.17;;;1.57;;
4646;SDS011;2336;47.822;7.564;2022-07-29T15:03:57;2.60;;;1.73;;
4646;SDS011;2336;47.822;7.564;2022-07-29T15:06:24;8.00;;;1.70;;
4646;SDS011;2336;47.822;7.564;2022-07-29T15:08:51;1.70;;;1.60;;
4646;SDS011;2336;47.822;7.564;2022-07-29T15:11:18;1.23;;;1.23;;
4646;SDS011;2336;47.822;7.564;2022-07-29T15:13:46;1.57;;;1.57;;
4646;SDS011;2336;47.822;7.564;2022-07-29T15:16:13;2.43;;;1.60;;
4646;SDS011;2336;47.822;7.564;2022-07-29T15:18:39;2.00;;;1.70;;
4646;SDS011;2336;47.822;7.564;2022-07-29T15:21:06;1.53;;;1.43;;
4646;SDS011;2336;47.822;7.564;2022-07-29T15:23:33;1.77;;;1.67;;
4646;SDS011;2336;47.822;7.564;2022-07-29T15:26:01;1.70;;;1.60;;
4646;SDS011;2336;47.822;7.564;2022-07-29T15:28:28;1.70;;;1.53;;
4646;SDS011;2336;47.822;7.564;2022-07-29T15:30:56;1.90;;;1.37;;
4646;SDS011;2336;47.822;7.564;2022-07-29T15:33:23;3.40;;;3.10;;
4646;SDS011;2336;47.822;7.564;2022-07-29T15:35:50;3.00;;;2.80;;
4646;SDS011;2336;47.822;7.564;2022-07-29T15:38:16;3.50;;;3.20;;
4646;SDS011;2336;47.822;7.564;2022-07-29T15:40:43;2.70;;;2.50;;
4646;SDS011;2336;47.822;7.564;2022-07-29T15:43:11;2.43;;;2.23;;
4646;SDS011;2336;47.822;7.564;2022-07-29T15:45:38;2.17;;;2.00;;
4646;SDS011;2336;47.822;7.564;2022-07-29T15:48:28;3.50;;;1.57;;
4646;SDS011;2336;47.822;7.564;2022-07-29T15:50:56;2.30;;;2.10;;
4646;SDS011;2336;47.822;7.564;2022-07-29T15:53:23;2.20;;;2.07;;
4646;SDS011;2336;47.822;7.564;2022-07-29T15:55:50;1.70;;;1.60;;
4646;SDS011;2336;47.822;7.564;2022-07-29T15:58:16;2.80;;;1.50;;
4646;SDS011;2336;47.822;7.564;2022-07-29T16:00:43;2.30;;;1.67;;
4646;SDS011;2336;47.822;7.564;2022-07-29T16:03:10;1.30;;;1.20;;
4646;SDS011;2336;47.822;7.564;2022-07-29T16:05:38;1.80;;;1.70;;
4646;SDS011;2336;47.822;7.564;2022-07-29T16:08:05;5.80;;;1.57;;
4646;SDS011;2336;47.822;7.564;2022-07-29T16:10:32;3.93;;;1.50;;
4646;SDS011;2336;47.822;7.564;2022-07-29T16:12:59;1.70;;;1.20;;
4646;SDS011;2336;47.822;7.564;2022-07-29T16:15:26;3.13;;;1.23;;
4646;SDS011;2336;47.822;7.564;2022-07-29T16:17:53;3.10;;;1.60;;